Time;durP1;ratioP1;P1;durP2;ratioP2;P2;SDS_P1;SDS_P2;PMS_P1;PMS_P2;Temp;Humidity;BMP_temperature;BMP_pressure;BME280_temperature;BME280_humidity;BME280_pressure;Samples;Min_cycle;Max_cycle;Signal;HPM_P1;HPM_P2
2023/03/09 00:01:53;;;;;;;28.00;13.88;;;;;;;13.31;50.99;100003.44;5029122;28;20030;-90
2023/03/09 00:04:19;;;;;;;30.45;11.27;;;;;;;13.25;51.19;99988.72;5044858;28;20033;-89
2023/03/09 00:06:45;;;;;;;53.30;13.98;;;;;;;13.33;50.75;100001.44;5046453;28;20033;-88
2023/03/09 00:09:12;;;;;;;40.67;11.60;;;;;;;13.35;51.15;100004.84;5040064;28;20060;-90
2023/03/09 00:11:43;;;;;;;36.92;14.20;;;;;;;13.41;51.01;99985.28;5036389;28;20108;-89
2023/03/09 00:14:09;;;;;;;27.00;12.90;;;;;;;13.40;51.20;99989.00;5039575;28;20028;-89
2023/03/09 00:16:37;;;;;;;60.63;14.05;;;;;;;13.37;51.36;99982.06;5041772;28;20037;-92
2023/03/09 00:19:03;;;;;;;34.45;11.77;;;;;;;13.48;51.31;99989.91;5036012;28;20084;-88
2023/03/09 00:21:36;;;;;;;26.85;9.98;;;;;;;13.50;51.02;99989.75;5037765;28;20033;-90
2023/03/09 00:24:05;;;;;;;23.88;9.02;;;;;;;13.55;51.18;99990.09;5034404;28;20056;-90
2023/03/09 00:26:31;;;;;;;38.15;9.43;;;;;;;13.50;51.24;99981.63;5034473;28;20095;-91
2023/03/09 00:28:57;;;;;;;25.00;9.18;;;;;;;13.47;51.07;99976.56;5032984;28;20079;-93
2023/03/09 00:31:22;;;;;;;28.60;8.20;;;;;;;13.53;51.05;99984.00;5033778;28;20547;-88
2023/03/09 00:33:48;;;;;;;33.08;8.55;;;;;;;13.54;50.82;99988.44;5021081;28;20120;-91
2023/03/09 00:36:16;;;;;;;35.65;8.10;;;;;;;13.52;51.42;99985.00;5044586;28;20037;-92
2023/03/09 00:38:42;;;;;;;54.72;11.80;;;;;;;13.53;51.57;99992.97;5044153;28;20088;-88
2023/03/09 00:41:08;;;;;;;16.67;8.98;;;;;;;13.39;51.82;99979.22;5031410;28;20049;-85
2023/03/09 00:43:34;;;;;;;25.73;8.32;;;;;;;13.42;51.96;99985.13;5056887;28;20041;-88
2023/03/09 00:45:59;;;;;;;19.08;7.65;;;;;;;13.39;51.96;99973.81;5031005;28;20022;-89
2023/03/09 00:48:25;;;;;;;33.35;8.95;;;;;;;13.46;52.39;99991.91;5032887;28;20045;-89
2023/03/09 00:50:50;;;;;;;33.08;9.38;;;;;;;13.45;52.42;99973.16;5034135;28;20112;-89
2023/03/09 00:53:16;;;;;;;29.88;8.70;;;;;;;13.41;52.28;99971.78;5032573;28;20094;-91
2023/03/09 00:55:42;;;;;;;39.70;9.07;;;;;;;13.45;52.16;99978.56;5032925;28;20036;-90
2023/03/09 00:58:07;;;;;;;39.70;9.13;;;;;;;13.40;52.42;99979.03;5015085;28;20032;-92
2023/03/09 01:00:33;;;;;;;25.52;7.63;;;;;;;13.31;52.47;99960.22;5032509;28;20028;-89
2023/03/09 01:02:59;;;;;;;30.92;8.93;;;;;;;13.33;52.64;99969.03;5032681;28;20029;-92
2023/03/09 01:05:25;;;;;;;21.05;8.52;;;;;;;13.34;52.86;99976.13;5032358;28;20104;-89
2023/03/09 01:07:50;;;;;;;28.88;13.55;;;;;;;13.30;53.20;99974.75;5032840;28;20175;-90
2023/03/09 01:10:16;;;;;;;33.88;12.68;;;;;;;13.24;53.61;99960.00;5033032;28;20018;-93
2023/03/09 01:12:42;;;;;;;29.50;11.52;;;;;;;13.20;53.71;99953.25;5032096;28;20065;-92
2023/03/09 01:15:08;;;;;;;21.88;8.63;;;;;;;13.16;53.80;99951.88;5032458;28;20025;-90
2023/03/09 01:17:34;;;;;;;18.58;7.72;;;;;;;13.14;53.94;99953.03;5032825;28;20048;-92
2023/03/09 01:19:59;;;;;;;25.23;6.95;;;;;;;13.10;53.93;99949.78;5032781;28;20040;-90
2023/03/09 01:22:25;;;;;;;21.42;6.65;;;;;;;13.08;53.75;99949.97;5033241;28;20021;-86
2023/03/09 01:24:50;;;;;;;21.42;6.72;;;;;;;13.04;54.23;99956.63;5032810;28;20064;-90
2023/03/09 01:27:15;;;;;;;17.65;6.43;;;;;;;13.05;54.11;99949.41;5032647;28;20041;-89
2023/03/09 01:29:41;;;;;;;16.85;6.78;;;;;;;12.92;54.27;99954.34;5015784;28;20041;-91
2023/03/09 01:32:07;;;;;;;13.32;6.15;;;;;;;12.83;54.98;99939.09;4996294;28;20106;-88
2023/03/09 01:34:32;;;;;;;19.05;5.85;;;;;;;12.76;54.89;99938.00;5013449;28;20069;-87
2023/03/09 01:36:57;;;;;;;10.73;6.53;;;;;;;12.62;55.21;99931.31;5006624;28;20039;-88
2023/03/09 01:39:23;;;;;;;14.30;6.53;;;;;;;12.70;55.68;99938.63;5012861;28;20029;-87
2023/03/09 01:41:48;;;;;;;13.95;6.55;;;;;;;12.64;55.64;99928.47;5015105;28;20094;-88
2023/03/09 01:44:14;;;;;;;21.48;6.97;;;;;;;12.58;55.83;99927.22;5009303;28;20042;-89
2023/03/09 01:46:54;;;;;;;17.05;5.53;;;;;;;12.65;55.63;99920.22;4993458;28;20045;-90
2023/03/09 01:49:28;;;;;;;19.80;7.63;;;;;;;12.61;55.93;99908.03;4992023;28;20104;-86
2023/03/09 01:52:17;;;;;;;21.30;8.40;;;;;;;12.71;55.64;99919.59;4990845;28;20042;-90
2023/03/09 01:55:01;;;;;;;23.23;7.40;;;;;;;12.77;55.47;99918.97;4992352;28;20117;-91
2023/03/09 01:57:29;;;;;;;23.77;7.90;;;;;;;12.85;55.59;99919.03;4974948;28;20517;-89
2023/03/09 01:59:59;;;;;;;22.92;8.93;;;;;;;12.83;55.22;99902.16;4976750;28;20460;-89
2023/03/09 02:02:29;;;;;;;22.30;8.57;;;;;;;12.88;55.42;99907.91;5014675;28;20053;-83
2023/03/09 02:05:03;;;;;;;21.98;8.20;;;;;;;13.00;55.00;99924.69;5055657;28;20071;-84
2023/03/09 02:07:30;;;;;;;21.90;8.45;;;;;;;13.06;54.84;99924.06;5038621;28;20105;-84
2023/03/09 02:10:06;;;;;;;25.67;8.70;;;;;;;13.07;55.20;99920.38;5039472;28;20077;-87
2023/03/09 02:12:31;;;;;;;25.80;10.20;;;;;;;12.99;55.27;99925.72;5038419;28;20044;-90
2023/03/09 02:14:57;;;;;;;25.13;9.25;;;;;;;12.85;55.46;99932.53;5048356;28;20112;-91
2023/03/09 02:17:23;;;;;;;17.98;9.98;;;;;;;12.80;56.13;99936.69;5033474;28;20025;-89
2023/03/09 02:20:04;;;;;;;24.55;11.70;;;;;;;12.74;56.18;99935.47;5033256;28;20037;-88
2023/03/09 02:22:31;;;;;;;35.47;12.63;;;;;;;12.68;55.47;99922.59;5013624;28;20706;-90
2023/03/09 02:24:57;;;;;;;26.02;14.20;;;;;;;12.78;54.66;99936.84;5032563;28;20505;-91
2023/03/09 02:27:25;;;;;;;29.20;15.23;;;;;;;12.71;54.67;99926.84;5013051;28;20029;-90
2023/03/09 02:29:52;;;;;;;34.33;16.05;;;;;;;12.75;54.28;99937.16;5032184;28;20029;-90
2023/03/09 02:32:18;;;;;;;45.08;15.85;;;;;;;12.78;54.10;99944.94;5037764;28;20029;-88
2023/03/09 02:34:44;;;;;;;28.13;14.32;;;;;;;12.79;54.06;99943.09;5046274;28;20447;-88
2023/03/09 02:37:33;;;;;;;28.77;14.57;;;;;;;12.78;54.50;99939.53;5052988;28;20018;-87
2023/03/09 02:40:16;;;;;;;31.48;14.15;;;;;;;12.76;54.44;99932.59;5058507;28;20018;-84
2023/03/09 02:42:45;;;;;;;35.67;15.10;;;;;;;12.82;54.18;99942.78;5058205;28;20075;-89
2023/03/09 02:45:14;;;;;;;36.80;15.95;;;;;;;12.77;54.55;99937.88;5036017;28;20028;-89
2023/03/09 02:47:39;;;;;;;22.70;13.00;;;;;;;12.85;54.33;99943.31;5038897;28;20053;-91
2023/03/09 02:50:07;;;;;;;34.15;13.10;;;;;;;12.81;54.96;99952.72;5035609;28;20037;-90
2023/03/09 02:52:32;;;;;;;31.95;14.15;;;;;;;12.85;54.92;99953.25;5034924;28;20120;-90
2023/03/09 02:54:58;;;;;;;23.40;12.00;;;;;;;12.87;55.32;99948.56;5035189;28;20484;-93
2023/03/09 02:57:23;;;;;;;21.15;11.15;;;;;;;12.83;55.40;99948.03;5018795;28;20025;-88
2023/03/09 02:59:48;;;;;;;26.83;11.93;;;;;;;12.83;55.37;99937.25;5027052;28;20057;-90
2023/03/09 03:02:14;;;;;;;20.42;10.68;;;;;;;12.87;55.94;99944.00;5036000;28;20112;-90
2023/03/09 03:04:40;;;;;;;18.17;8.82;;;;;;;12.93;55.89;99938.00;5035054;28;20025;-90
2023/03/09 03:07:05;;;;;;;23.42;8.80;;;;;;;13.00;55.85;99947.16;5034671;28;20029;-90
2023/03/09 03:09:30;;;;;;;16.88;8.85;;;;;;;13.01;55.76;99943.47;5035002;28;20057;-91
2023/03/09 03:11:57;;;;;;;20.10;8.30;;;;;;;13.00;55.57;99944.44;5035378;28;20033;-91
2023/03/09 03:14:22;;;;;;;16.73;8.95;;;;;;;12.92;56.18;99939.00;5035108;28;20088;-90
2023/03/09 03:16:48;;;;;;;16.27;7.95;;;;;;;12.85;56.10;99937.06;5034031;28;20477;-90
2023/03/09 03:19:13;;;;;;;14.55;6.57;;;;;;;12.90;56.55;99941.00;5033935;28;20112;-89
2023/03/09 03:21:38;;;;;;;14.88;7.30;;;;;;;12.93;56.40;99940.72;5034507;28;20048;-91
2023/03/09 03:24:04;;;;;;;13.18;6.80;;;;;;;12.96;56.78;99942.25;5036360;28;20033;-88
2023/03/09 03:26:30;;;;;;;12.77;6.75;;;;;;;12.97;56.59;99941.22;5039874;28;20037;-90
2023/03/09 03:28:55;;;;;;;27.58;8.75;;;;;;;13.04;56.60;99937.75;5045885;28;20030;-90
2023/03/09 03:31:20;;;;;;;13.07;6.45;;;;;;;13.12;56.59;99939.66;5042320;28;20028;-88
2023/03/09 03:33:46;;;;;;;10.15;5.95;;;;;;;13.24;55.99;99943.00;5050506;28;20691;-88
2023/03/09 03:36:11;;;;;;;9.98;5.72;;;;;;;13.07;56.17;99931.19;5035469;28;20037;-84
2023/03/09 03:38:37;;;;;;;13.05;7.07;;;;;;;13.13;56.36;99929.72;5057166;28;20073;-84
2023/03/09 03:41:03;;;;;;;20.83;6.90;;;;;;;13.18;56.53;99924.72;5057884;28;20030;-86
2023/03/09 03:43:28;;;;;;;12.13;6.07;;;;;;;13.22;56.63;99937.72;5042453;28;20052;-91
2023/03/09 03:45:54;;;;;;;8.65;5.25;;;;;;;13.26;56.60;99940.97;5034151;28;20021;-89
2023/03/09 03:48:19;;;;;;;12.00;6.28;;;;;;;13.33;56.44;99942.84;5031947;28;20153;-91
2023/03/09 03:50:45;;;;;;;13.85;6.68;;;;;;;13.34;56.47;99930.19;5015858;28;20034;-90
2023/03/09 03:53:10;;;;;;;9.10;6.40;;;;;;;13.37;56.45;99946.09;5034190;28;20040;-88
2023/03/09 03:55:36;;;;;;;18.42;7.22;;;;;;;13.36;56.55;99933.63;5035450;28;20037;-90
2023/03/09 03:58:02;;;;;;;16.92;7.50;;;;;;;13.40;56.24;99929.56;5034938;28;20041;-89
2023/03/09 04:00:27;;;;;;;11.68;6.90;;;;;;;13.44;56.05;99929.09;5034425;28;20476;-93
2023/03/09 04:02:54;;;;;;;12.38;6.60;;;;;;;13.44;56.58;99922.84;5014376;28;20042;-90
2023/03/09 04:05:19;;;;;;;16.00;7.40;;;;;;;13.50;56.16;99922.19;4995958;28;20092;-93
2023/03/09 04:07:46;;;;;;;15.38;7.75;;;;;;;13.51;56.13;99934.72;4996534;28;20041;-88
2023/03/09 04:10:11;;;;;;;14.38;7.90;;;;;;;13.49;56.17;99931.31;5015376;28;20026;-88
2023/03/09 04:12:37;;;;;;;19.52;8.38;;;;;;;13.53;56.10;99924.59;5015199;28;20037;-89
2023/03/09 04:15:03;;;;;;;17.45;9.23;;;;;;;13.59;56.36;99923.94;5014152;28;20022;-90
2023/03/09 04:17:28;;;;;;;22.65;8.68;;;;;;;13.62;55.61;99915.50;5015872;28;20026;-90
2023/03/09 04:19:54;;;;;;;23.13;9.60;;;;;;;13.59;55.85;99910.44;4998927;28;20029;-88
2023/03/09 04:22:19;;;;;;;21.38;10.20;;;;;;;13.67;55.63;99915.84;5014530;28;20029;-90
2023/03/09 04:24:48;;;;;;;21.98;8.50;;;;;;;13.68;55.90;99931.06;5015077;28;20022;-86
2023/03/09 04:27:14;;;;;;;20.13;9.48;;;;;;;13.75;55.47;99925.88;5014722;28;20489;-89
2023/03/09 04:29:39;;;;;;;20.30;10.00;;;;;;;13.77;55.38;99918.44;5019462;28;20032;-90
2023/03/09 04:32:05;;;;;;;16.48;10.05;;;;;;;13.79;55.46;99919.16;5021935;28;20105;-90
2023/03/09 04:34:30;;;;;;;47.70;12.60;;;;;;;13.80;55.39;99913.56;5021327;28;20017;-90
2023/03/09 04:36:56;;;;;;;31.40;10.07;;;;;;;13.77;55.47;99908.47;5030403;28;20026;-89
2023/03/09 04:39:22;;;;;;;31.10;10.02;;;;;;;13.85;55.27;99913.91;5018930;28;20093;-86
2023/03/09 04:41:47;;;;;;;22.75;10.50;;;;;;;13.75;55.53;99905.09;5028647;28;20038;-90
2023/03/09 04:44:12;;;;;;;21.73;11.50;;;;;;;13.75;55.41;99893.44;5015155;28;20473;-91
2023/03/09 04:46:38;;;;;;;19.02;11.80;;;;;;;13.72;55.26;99894.63;5016317;28;20029;-90
2023/03/09 04:49:03;;;;;;;16.23;10.57;;;;;;;13.67;55.37;99896.94;5015348;28;20060;-92
2023/03/09 04:51:29;;;;;;;28.98;11.43;;;;;;;13.62;55.61;99907.41;4999218;28;20022;-89
2023/03/09 04:53:55;;;;;;;23.15;12.43;;;;;;;13.64;55.57;99897.28;5014213;28;20026;-91
2023/03/09 04:56:21;;;;;;;20.83;11.10;;;;;;;13.56;55.63;99898.09;5015360;28;20022;-92
2023/03/09 04:58:46;;;;;;;19.80;10.40;;;;;;;13.59;55.97;99899.63;5035702;28;20029;-87
2023/03/09 05:01:13;;;;;;;23.65;10.98;;;;;;;13.47;56.13;99895.50;5042056;28;20016;-90
2023/03/09 05:03:38;;;;;;;21.15;11.07;;;;;;;13.57;55.70;99902.50;5039114;28;20033;-87
2023/03/09 05:06:04;;;;;;;20.88;9.57;;;;;;;13.62;55.75;99902.84;5037904;28;20056;-91
2023/03/09 05:08:29;;;;;;;12.60;8.88;;;;;;;13.68;55.80;99903.19;5032915;28;20048;-90
2023/03/09 05:10:55;;;;;;;20.27;9.52;;;;;;;13.60;55.79;99885.13;5033848;28;20037;-88
2023/03/09 05:13:20;;;;;;;20.90;9.13;;;;;;;13.69;55.45;99894.94;5027912;28;20022;-89
2023/03/09 05:15:46;;;;;;;16.50;9.70;;;;;;;13.79;55.33;99900.22;5027700;28;20039;-86
2023/03/09 05:18:11;;;;;;;25.48;9.38;;;;;;;13.86;55.41;99907.50;5032662;28;20089;-90
2023/03/09 05:20:38;;;;;;;20.67;9.77;;;;;;;13.92;55.08;99906.00;5031934;28;20030;-88
2023/03/09 05:23:03;;;;;;;25.63;9.88;;;;;;;13.98;55.06;99908.91;5035096;28;20029;-86
2023/03/09 05:25:30;;;;;;;25.17;9.55;;;;;;;13.89;55.09;99898.22;5032490;28;20463;-92
2023/03/09 05:27:56;;;;;;;24.05;9.65;;;;;;;14.00;54.99;99911.44;5032618;28;20118;-92
2023/03/09 05:30:22;;;;;;;18.92;10.68;;;;;;;14.01;54.89;99905.00;5021209;28;20025;-90
2023/03/09 05:32:49;;;;;;;31.60;11.50;;;;;;;14.08;54.76;99908.75;5020544;28;20037;-88
2023/03/09 05:35:16;;;;;;;26.10;10.90;;;;;;;14.14;54.51;99906.25;5021512;28;20032;-82
2023/03/09 05:37:41;;;;;;;20.63;10.82;;;;;;;14.02;55.03;99912.97;5036295;28;20037;-85
2023/03/09 05:40:09;;;;;;;33.88;11.27;;;;;;;14.03;54.86;99903.00;5054991;28;20040;-88
2023/03/09 05:42:34;;;;;;;45.58;12.45;;;;;;;14.13;54.57;99899.13;5010901;28;20048;-90
2023/03/09 05:45:02;;;;;;;27.80;11.63;;;;;;;14.27;54.41;99908.47;5022850;28;20088;-89
2023/03/09 05:47:27;;;;;;;29.02;13.00;;;;;;;14.26;54.17;99897.81;5021710;28;20061;-90
2023/03/09 05:49:52;;;;;;;38.75;12.45;;;;;;;14.44;54.04;99906.66;5020223;28;20037;-88
2023/03/09 05:52:18;;;;;;;32.95;11.95;;;;;;;14.55;53.97;99909.06;5031009;28;20018;-84
2023/03/09 05:54:43;;;;;;;24.48;10.93;;;;;;;14.59;53.46;99907.69;5031049;28;20021;-87
2023/03/09 05:57:12;;;;;;;26.33;10.63;;;;;;;14.72;53.28;99908.06;5031189;28;20082;-85
2023/03/09 05:59:38;;;;;;;52.53;13.82;;;;;;;14.73;53.25;99901.63;5032204;28;20059;-85
2023/03/09 06:02:04;;;;;;;44.33;11.00;;;;;;;14.84;53.11;99906.69;5031893;28;20112;-86
2023/03/09 06:04:30;;;;;;;33.92;10.20;;;;;;;14.92;52.69;99903.97;5013542;28;20044;-84
2023/03/09 06:06:55;;;;;;;32.03;11.10;;;;;;;15.00;52.48;99901.28;5031322;28;20475;-84
2023/03/09 06:09:21;;;;;;;35.40;8.20;;;;;;;15.11;52.29;99902.78;5031845;28;20083;-86
2023/03/09 06:11:46;;;;;;;36.42;11.45;;;;;;;15.17;52.39;99911.06;5031753;28;20025;-85
2023/03/09 06:14:12;;;;;;;23.50;9.00;;;;;;;15.13;51.81;99912.44;5032525;28;20026;-86
2023/03/09 06:16:37;;;;;;;19.70;8.05;;;;;;;15.21;51.92;99912.41;5015027;28;20029;-87
2023/03/09 06:19:03;;;;;;;24.88;9.40;;;;;;;15.27;51.80;99917.16;5037896;28;20036;-83
2023/03/09 06:21:29;;;;;;;25.08;9.52;;;;;;;15.20;51.76;99916.13;5037430;28;20061;-84
2023/03/09 06:23:55;;;;;;;29.67;10.82;;;;;;;15.29;51.97;99908.03;5050889;28;20097;-84
2023/03/09 06:26:22;;;;;;;22.75;10.23;;;;;;;15.25;51.72;99892.09;5046575;28;20034;-85
2023/03/09 06:28:48;;;;;;;32.63;11.55;;;;;;;15.30;51.58;99893.44;5044513;28;20493;-86
2023/03/09 06:31:15;;;;;;;32.60;11.05;;;;;;;15.38;51.72;99902.38;5045877;28;20035;-86
2023/03/09 06:33:43;;;;;;;24.00;10.02;;;;;;;15.42;51.46;99900.19;5039630;28;20056;-86
2023/03/09 06:36:11;;;;;;;36.35;11.05;;;;;;;15.45;51.31;99899.81;5047412;28;20049;-86
2023/03/09 06:38:36;;;;;;;34.72;10.70;;;;;;;15.53;51.24;99905.28;5048066;28;20112;-85
2023/03/09 06:41:02;;;;;;;26.67;9.07;;;;;;;15.67;51.18;99901.81;5030674;28;20120;-85
2023/03/09 06:43:27;;;;;;;29.77;9.73;;;;;;;15.74;50.88;99900.13;5029870;28;20028;-85
2023/03/09 06:45:53;;;;;;;16.92;8.38;;;;;;;15.82;50.56;99891.09;5029622;28;20034;-84
2023/03/09 06:48:19;;;;;;;30.13;9.00;;;;;;;15.88;50.38;99888.53;5029333;28;20053;-84
2023/03/09 06:50:44;;;;;;;24.13;8.15;;;;;;;15.78;50.30;99875.16;5029543;28;20175;-85
2023/03/09 06:53:11;;;;;;;23.90;9.45;;;;;;;15.84;50.44;99887.16;5029979;28;20101;-84
2023/03/09 06:55:38;;;;;;;24.70;8.30;;;;;;;15.97;49.92;99890.16;5029402;28;20049;-87
2023/03/09 06:58:04;;;;;;;20.35;7.15;;;;;;;16.01;49.69;99890.66;5029459;28;20159;-85
2023/03/09 07:00:30;;;;;;;16.60;8.02;;;;;;;16.10;49.33;99893.16;5029142;28;20060;-84
2023/03/09 07:02:56;;;;;;;20.92;7.38;;;;;;;16.17;48.87;99899.56;5029608;28;20033;-86
2023/03/09 07:05:21;;;;;;;38.35;10.10;;;;;;;16.12;49.24;99901.94;5029574;28;20029;-84
2023/03/09 07:07:48;;;;;;;30.95;9.65;;;;;;;16.14;49.41;99904.50;5029935;28;20036;-83
2023/03/09 07:10:13;;;;;;;46.28;15.32;;;;;;;16.13;49.67;99895.53;5029476;28;20037;-86
2023/03/09 07:12:39;;;;;;;37.83;16.05;;;;;;;16.19;49.67;99907.50;5029932;28;20025;-84
2023/03/09 07:15:05;;;;;;;57.03;16.42;;;;;;;16.20;49.39;99904.63;5029729;28;20464;-85
2023/03/09 07:17:31;;;;;;;59.80;17.65;;;;;;;16.28;49.30;99918.16;5029412;28;20029;-85
2023/03/09 07:19:59;;;;;;;47.78;17.25;;;;;;;16.30;49.29;99924.22;5011229;28;20040;-86
2023/03/09 07:22:25;;;;;;;62.70;19.65;;;;;;;16.33;49.04;99921.16;5029771;28;20129;-86
2023/03/09 07:24:51;;;;;;;74.80;19.77;;;;;;;16.37;49.29;99913.50;5033207;28;20029;-85
2023/03/09 07:27:18;;;;;;;48.05;21.10;;;;;;;16.33;49.34;99921.16;5032921;28;20030;-84
2023/03/09 07:29:45;;;;;;;43.28;21.25;;;;;;;16.46;49.40;99945.00;5033208;28;20025;-85
2023/03/09 07:32:11;;;;;;;61.65;21.70;;;;;;;16.51;49.35;99941.75;5042903;28;20081;-84
2023/03/09 07:34:37;;;;;;;89.50;24.60;;;;;;;16.60;49.45;99935.28;5051340;28;20026;-83
2023/03/09 07:37:03;;;;;;;59.22;22.25;;;;;;;16.61;49.47;99951.38;5041076;28;20079;-84
2023/03/09 07:39:28;;;;;;;43.80;20.50;;;;;;;16.69;49.23;99942.34;5033382;28;20194;-84
2023/03/09 07:41:54;;;;;;;52.25;22.75;;;;;;;16.75;49.04;99933.47;5016334;28;20026;-85
2023/03/09 07:44:19;;;;;;;50.10;20.75;;;;;;;16.86;48.80;99935.75;5035359;28;20025;-84
2023/03/09 07:46:44;;;;;;;50.72;20.50;;;;;;;16.95;48.66;99942.81;5035510;28;20029;-87
2023/03/09 07:49:10;;;;;;;51.28;20.65;;;;;;;17.02;48.44;99938.34;5033746;28;20107;-85
2023/03/09 07:51:37;;;;;;;40.15;17.98;;;;;;;17.04;48.28;99940.88;5032691;28;20377;-86
2023/03/09 07:54:05;;;;;;;41.45;15.63;;;;;;;17.12;47.38;99930.81;5032469;28;20037;-85
2023/03/09 07:56:31;;;;;;;31.42;15.32;;;;;;;17.09;47.15;99927.59;5035201;28;20413;-84
2023/03/09 07:58:56;;;;;;;35.90;16.60;;;;;;;17.04;47.33;99930.84;5016260;28;20040;-85
2023/03/09 08:01:22;;;;;;;26.30;15.57;;;;;;;16.91;47.67;99933.34;5033238;28;20025;-85
2023/03/09 08:03:49;;;;;;;35.67;15.15;;;;;;;16.81;47.63;99919.19;5031740;28;20022;-86
2023/03/09 08:06:15;;;;;;;27.88;13.68;;;;;;;16.85;48.05;99931.34;5032281;28;20492;-86
2023/03/09 08:08:41;;;;;;;30.08;12.30;;;;;;;16.94;47.89;99930.25;5032352;28;20415;-86
2023/03/09 08:11:07;;;;;;;23.90;10.52;;;;;;;16.95;47.40;99934.66;5036998;28;20113;-84
2023/03/09 08:13:33;;;;;;;32.70;10.73;;;;;;;16.94;46.73;99919.38;5043447;28;20035;-86
2023/03/09 08:16:02;;;;;;;26.63;10.98;;;;;;;16.99;46.75;99921.56;5029144;28;20029;-85
2023/03/09 08:18:28;;;;;;;37.42;10.68;;;;;;;16.86;46.57;99912.16;5048475;28;20017;-86
2023/03/09 08:20:53;;;;;;;33.38;10.20;;;;;;;16.98;46.09;99934.31;5044260;28;20030;-85
2023/03/09 08:23:19;;;;;;;26.15;9.98;;;;;;;17.10;46.18;99927.41;5039179;28;20396;-87
2023/03/09 08:25:44;;;;;;;22.50;10.38;;;;;;;17.24;46.34;99920.31;5039382;28;20587;-85
2023/03/09 08:28:11;;;;;;;29.08;10.25;;;;;;;17.39;46.33;99935.63;5034439;28;20037;-83
2023/03/09 08:30:38;;;;;;;32.38;11.35;;;;;;;17.50;46.19;99918.00;5045468;28;20040;-84
2023/03/09 08:33:04;;;;;;;40.28;11.77;;;;;;;17.64;45.63;99921.81;5052405;28;20029;-84
2023/03/09 08:35:32;;;;;;;34.50;13.05;;;;;;;17.79;45.47;99915.34;5039945;28;20089;-86
2023/03/09 08:37:59;;;;;;;24.55;11.23;;;;;;;18.01;45.06;99923.56;5031328;28;20113;-86
2023/03/09 08:40:25;;;;;;;34.92;10.30;;;;;;;18.10;44.21;99906.09;4995973;28;20088;-84
2023/03/09 08:42:51;;;;;;;19.75;8.35;;;;;;;18.21;43.73;99903.72;5031599;28;20029;-85
2023/03/09 08:45:17;;;;;;;37.38;9.98;;;;;;;18.43;43.04;99924.50;5030527;28;20416;-84
2023/03/09 08:47:42;;;;;;;20.83;8.02;;;;;;;18.48;42.66;99926.63;5031942;28;20057;-84
2023/03/09 08:50:09;;;;;;;28.20;8.18;;;;;;;18.59;42.24;99926.16;5032262;28;20033;-86
2023/03/09 08:52:37;;;;;;;27.77;9.00;;;;;;;18.58;41.86;99910.03;5031968;28;20030;-85
2023/03/09 08:55:05;;;;;;;17.10;7.20;;;;;;;18.79;41.36;99919.03;5031274;28;20099;-83
2023/03/09 08:57:31;;;;;;;13.45;5.45;;;;;;;18.84;40.33;99916.56;5030617;28;20137;-85
2023/03/09 08:59:57;;;;;;;26.63;5.60;;;;;;;18.97;39.97;99916.69;5031831;28;20080;-85
2023/03/09 09:02:23;;;;;;;21.17;5.80;;;;;;;18.97;39.72;99896.78;5031258;28;20159;-84
2023/03/09 09:04:48;;;;;;;11.15;4.72;;;;;;;19.11;39.38;99895.81;5013442;28;20182;-85
2023/03/09 09:07:15;;;;;;;17.80;5.68;;;;;;;19.34;39.22;99914.69;5030965;28;20056;-85
2023/03/09 09:09:41;;;;;;;16.55;5.82;;;;;;;19.40;38.81;99906.59;5030598;28;20030;-85
2023/03/09 09:12:09;;;;;;;11.93;5.13;;;;;;;19.35;38.59;99891.84;5030339;28;20045;-84
2023/03/09 09:14:37;;;;;;;17.13;5.13;;;;;;;19.38;38.05;99896.91;5030344;28;20029;-82
2023/03/09 09:17:06;;;;;;;7.90;3.38;;;;;;;19.50;37.65;99900.78;5030791;28;20025;-85
2023/03/09 09:19:32;;;;;;;7.25;3.20;;;;;;;19.52;36.34;99910.44;5031024;28;20044;-85
2023/03/09 09:21:59;;;;;;;11.07;3.03;;;;;;;19.58;36.25;99902.50;5030945;28;20471;-84
2023/03/09 09:24:25;;;;;;;14.30;3.35;;;;;;;19.59;36.29;99894.13;5030718;28;20104;-84
2023/03/09 09:26:54;;;;;;;9.30;3.17;;;;;;;19.69;36.58;99888.31;5030958;28;20083;-85
2023/03/09 09:29:20;;;;;;;18.48;4.85;;;;;;;19.74;36.62;99869.44;5045537;28;20025;-84
2023/03/09 09:31:48;;;;;;;21.98;5.03;;;;;;;19.83;36.50;99870.94;5047983;28;20038;-83
2023/03/09 09:34:13;;;;;;;8.70;3.25;;;;;;;19.81;36.80;99871.16;5037527;28;20025;-85
2023/03/09 09:36:40;;;;;;;7.22;3.63;;;;;;;19.89;36.67;99856.50;5012917;28;20080;-84
2023/03/09 09:39:06;;;;;;;8.63;3.17;;;;;;;19.92;36.80;99872.47;5031034;28;20420;-84
2023/03/09 09:41:43;;;;;;;21.17;3.75;;;;;;;20.01;36.85;99874.81;5030943;28;20095;-84
2023/03/09 09:44:20;;;;;;;9.30;4.68;;;;;;;20.09;36.81;99860.97;5030994;28;20033;-84
2023/03/09 09:46:46;;;;;;;15.07;3.72;;;;;;;20.19;36.55;99841.47;5030415;28;20536;-84
2023/03/09 09:49:22;;;;;;;7.70;3.58;;;;;;;20.27;36.37;99845.97;5030354;28;20057;-85
2023/03/09 09:52:05;;;;;;;14.07;4.30;;;;;;;20.41;36.37;99843.03;5030864;28;20021;-85
2023/03/09 09:54:34;;;;;;;15.02;4.00;;;;;;;20.43;35.94;99840.09;5030797;28;20039;-85
2023/03/09 09:57:10;;;;;;;8.10;4.40;;;;;;;20.34;36.26;99842.19;5030125;28;20117;-83
2023/03/09 09:59:47;;;;;;;9.15;3.95;;;;;;;20.47;36.10;99844.94;5029237;28;20030;-85
2023/03/09 10:02:45;;;;;;;6.47;3.40;;;;;;;20.34;35.93;99836.72;5014675;28;20033;-85
2023/03/09 10:05:33;;;;;;;9.30;4.78;;;;;;;20.40;36.25;99830.41;4954464;28;20518;-85
2023/03/09 10:08:12;;;;;;;14.77;4.90;;;;;;;20.46;36.35;99826.88;4893238;29;20143;-84
2023/03/09 10:10:39;;;;;;;18.65;4.45;;;;;;;20.66;35.93;99831.50;4892756;29;20041;-83
2023/03/09 10:13:14;;;;;;;13.27;4.50;;;;;;;20.75;35.63;99825.63;4892704;29;20088;-83
2023/03/09 10:15:39;;;;;;;12.73;4.38;;;;;;;20.86;35.45;99825.00;4894893;29;20092;-85
2023/03/09 10:18:19;;;;;;;10.20;4.63;;;;;;;20.87;37.06;99829.41;4897144;29;20033;-85
2023/03/09 10:20:49;;;;;;;15.82;4.75;;;;;;;20.90;37.43;99830.88;4896338;29;20037;-83
2023/03/09 10:23:17;;;;;;;11.50;4.50;;;;;;;20.97;36.77;99823.53;4884789;29;20055;-84
2023/03/09 10:25:44;;;;;;;21.50;4.22;;;;;;;21.05;35.86;99828.78;4897062;29;20055;-82
2023/03/09 10:28:20;;;;;;;16.17;4.40;;;;;;;21.11;34.25;99823.34;4908269;29;20051;-82
2023/03/09 10:30:53;;;;;;;10.82;3.55;;;;;;;21.26;33.91;99817.63;4889967;29;20040;-84
2023/03/09 10:34:00;;;;;;;7.80;4.38;;;;;;;21.40;34.24;99813.81;4897088;29;20037;-84
2023/03/09 10:36:36;;;;;;;19.17;3.97;;;;;;;21.58;34.02;99799.44;4858565;29;20046;-82
2023/03/09 10:39:16;;;;;;;18.00;4.72;;;;;;;21.61;35.39;99799.88;4871641;29;20030;-83
2023/03/09 10:41:42;;;;;;;29.95;6.60;;;;;;;21.51;36.53;99783.06;4901460;29;20100;-83
2023/03/09 10:44:10;;;;;;;15.15;5.03;;;;;;;21.37;36.78;99775.09;4923165;28;20109;-83
2023/03/09 10:47:00;;;;;;;8.95;4.13;;;;;;;21.44;35.88;99774.00;4953568;29;20058;-84
2023/03/09 10:49:27;;;;;;;24.92;4.32;;;;;;;21.47;35.69;99759.91;4952051;29;20079;-84
2023/03/09 10:52:05;;;;;;;13.10;5.07;;;;;;;21.68;35.71;99751.38;4943112;29;20112;-84
2023/03/09 10:54:41;;;;;;;19.27;5.03;;;;;;;21.68;36.01;99753.28;4931419;29;20510;-85
2023/03/09 10:57:24;;;;;;;16.90;4.10;;;;;;;21.74;34.93;99736.03;4931270;29;20413;-84
2023/03/09 11:00:11;;;;;;;11.85;3.63;;;;;;;21.95;34.63;99740.34;4934988;29;20103;-84
2023/03/09 11:02:37;;;;;;;42.85;7.75;;;;;;;22.11;35.31;99737.06;4934508;29;20093;-85
2023/03/09 11:05:22;;;;;;;12.77;4.65;;;;;;;22.02;35.59;99719.22;4934451;29;20039;-82
2023/03/09 11:07:51;;;;;;;30.23;6.90;;;;;;;21.65;37.39;99715.41;4934464;29;20043;-85
2023/03/09 11:10:25;;;;;;;19.92;4.20;;;;;;;21.18;38.30;99719.41;4934040;29;20169;-86
2023/03/09 11:12:52;;;;;;;38.83;5.72;;;;;;;20.73;39.17;99720.31;4959355;28;20686;-85
2023/03/09 11:15:18;;;;;;;20.58;5.07;;;;;;;20.91;39.00;99715.03;5035260;28;20047;-85
2023/03/09 11:17:45;;;;;;;30.73;5.10;;;;;;;20.89;39.09;99723.44;5032773;28;20026;-84
2023/03/09 11:20:28;;;;;;;26.50;5.55;;;;;;;20.89;39.17;99717.97;5033525;28;20048;-84
2023/03/09 11:23:11;;;;;;;22.27;3.70;;;;;;;20.89;39.21;99714.38;5033035;28;20033;-85
2023/03/09 11:25:44;;;;;;;12.98;4.28;;;;;;;20.88;39.31;99720.94;5045390;28;20026;-84